createdAt,value
2023-01-25T00:02:19.123Z,102818.16
2023-01-25T00:04:45.661Z,102810.13
2023-01-25T00:07:12.157Z,102813.13
2023-01-25T00:09:38.672Z,102818.34
2023-01-25T00:12:05.420Z,102812.25
2023-01-25T00:14:32.006Z,102804.81
2023-01-25T00:16:58.473Z,102796.75
2023-01-25T00:19:24.990Z,102802.13
2023-01-25T00:21:51.501Z,102800.69
2023-01-25T00:24:18.398Z,102802.06
2023-01-25T00:26:45.045Z,102807.88
2023-01-25T00:29:13.999Z,102798.53
2023-01-25T00:31:40.516Z,102786.94
2023-01-25T00:34:37.811Z,102788.09
2023-01-25T00:37:18.379Z,102782.69
2023-01-25T00:39:45.059Z,102791.53
2023-01-25T00:42:12.504Z,102782.03
2023-01-25T00:44:39.450Z,102774.00
2023-01-25T00:47:10.020Z,102785.19
2023-01-25T00:49:37.779Z,102786.81
2023-01-25T00:52:04.535Z,102783.94
2023-01-25T00:54:31.328Z,102779.06
2023-01-25T00:56:57.961Z,102778.88
2023-01-25T00:59:25.386Z,102778.63
2023-01-25T01:01:53.588Z,102772.03
2023-01-25T01:04:20.907Z,102773.34
2023-01-25T01:06:47.509Z,102774.56
2023-01-25T01:09:16.663Z,102780.50
2023-01-25T01:11:43.758Z,102771.47
2023-01-25T01:14:11.085Z,102777.41
2023-01-25T01:16:37.810Z,102770.66
2023-01-25T01:19:05.141Z,102767.69
2023-01-25T01:21:31.977Z,102765.56
2023-01-25T01:23:58.990Z,102761.28
2023-01-25T01:26:25.546Z,102764.25
2023-01-25T01:28:52.237Z,102755.88
2023-01-25T01:31:22.739Z,102744.22
2023-01-25T01:34:04.941Z,102744.25
2023-01-25T01:36:31.547Z,102749.19
2023-01-25T01:38:59.793Z,102739.56
2023-01-25T01:41:27.043Z,102741.34
2023-01-25T01:43:54.556Z,102729.53
2023-01-25T01:46:34.503Z,102732.72
2023-01-25T01:49:06.301Z,102732.84
2023-01-25T01:51:38.523Z,102740.50
2023-01-25T01:54:17.758Z,102732.72
2023-01-25T01:56:55.389Z,102728.56
2023-01-25T01:59:26.852Z,102711.31
2023-01-25T02:01:54.212Z,102717.13
2023-01-25T02:04:44.442Z,102721.78
2023-01-25T02:07:35.280Z,102721.34
2023-01-25T02:10:04.594Z,102724.06
2023-01-25T02:12:32.101Z,102714.31
2023-01-25T02:14:59.887Z,102720.22
2023-01-25T02:17:29.280Z,102722.84
2023-01-25T02:20:06.932Z,102726.28
2023-01-25T02:22:44.998Z,102716.09
2023-01-25T02:25:14.276Z,102713.00
2023-01-25T02:27:46.169Z,102707.34
2023-01-25T02:30:13.130Z,102704.47
2023-01-25T02:32:39.665Z,102714.13
2023-01-25T02:35:07.238Z,102711.03
2023-01-25T02:37:34.166Z,102710.22
2023-01-25T02:40:01.066Z,102710.19
2023-01-25T02:42:31.778Z,102704.69
2023-01-25T02:45:00.502Z,102701.56
2023-01-25T02:47:27.005Z,102700.44
2023-01-25T02:49:53.549Z,102693.50
2023-01-25T02:52:20.437Z,102705.94
2023-01-25T02:54:46.957Z,102693.72
2023-01-25T02:57:13.502Z,102695.53
2023-01-25T02:59:42.862Z,102695.72
2023-01-25T03:02:10.860Z,102681.88
2023-01-25T03:04:37.404Z,102673.44
2023-01-25T03:07:04.371Z,102671.44
2023-01-25T03:09:30.954Z,102672.66
2023-01-25T03:11:58.059Z,102666.09
2023-01-25T03:14:24.728Z,102664.22
2023-01-25T03:16:51.273Z,102664.94
2023-01-25T03:19:20.954Z,102659.44
2023-01-25T03:21:47.545Z,102660.81
2023-01-25T03:24:14.440Z,102642.22
2023-01-25T03:27:04.257Z,102640.69
2023-01-25T03:29:36.276Z,102629.97
2023-01-25T03:32:08.301Z,102627.91
2023-01-25T03:34:35.466Z,102631.00
2023-01-25T03:37:03.493Z,102630.00
2023-01-25T03:39:31.619Z,102622.50
2023-01-25T03:41:58.255Z,102623.44
2023-01-25T03:44:25.193Z,102617.56
2023-01-25T03:46:51.879Z,102629.06
2023-01-25T03:49:19.588Z,102625.88
2023-01-25T03:51:46.120Z,102631.44
2023-01-25T03:54:13.190Z,102633.03
2023-01-25T03:56:40.142Z,102625.53
2023-01-25T03:59:15.990Z,102622.50
2023-01-25T04:01:44.200Z,102619.59
2023-01-25T04:04:10.700Z,102619.16
2023-01-25T04:06:39.514Z,102603.94
2023-01-25T04:09:06.916Z,102610.88
2023-01-25T04:11:38.779Z,102608.81
2023-01-25T04:14:05.517Z,102607.94
2023-01-25T04:16:40.102Z,102601.94
2023-01-25T04:19:28.853Z,102607.22
2023-01-25T04:21:58.629Z,102600.94
2023-01-25T04:24:30.940Z,102599.44
2023-01-25T04:26:58.006Z,102597.97
2023-01-25T04:29:39.176Z,102601.34
2023-01-25T04:32:08.370Z,102590.00
2023-01-25T04:34:35.193Z,102596.75
2023-01-25T04:37:02.025Z,102598.13
2023-01-25T04:39:33.288Z,102599.97
2023-01-25T04:41:59.922Z,102589.59
2023-01-25T04:44:26.445Z,102593.31
2023-01-25T04:46:53.249Z,102594.69
2023-01-25T04:49:20.258Z,102597.53
2023-01-25T04:51:46.782Z,102587.91
2023-01-25T04:54:13.614Z,102593.25
2023-01-25T04:56:40.552Z,102597.63
2023-01-25T04:59:07.628Z,102581.41
2023-01-25T05:01:34.363Z,102576.84
2023-01-25T05:04:04.851Z,102584.53
2023-01-25T05:06:38.504Z,102580.69
2023-01-25T05:09:05.947Z,102579.50
2023-01-25T05:11:34.492Z,102576.03
2023-01-25T05:14:05.877Z,102571.13
2023-01-25T05:16:33.791Z,102577.56
2023-01-25T05:19:01.668Z,102571.97
2023-01-25T05:21:59.051Z,102570.59
2023-01-25T05:24:32.167Z,102573.19
2023-01-25T05:27:05.679Z,102562.81
2023-01-25T05:29:56.785Z,102563.75
2023-01-25T05:32:31.011Z,102564.22
2023-01-25T05:35:00.627Z,102564.44
2023-01-25T05:37:27.382Z,102554.50
2023-01-25T05:39:59.439Z,102557.00
2023-01-25T05:42:26.033Z,102562.81
2023-01-25T05:44:52.709Z,102554.91
2023-01-25T05:47:19.290Z,102546.78
2023-01-25T05:49:46.435Z,102551.00
2023-01-25T05:52:32.297Z,102550.03
2023-01-25T05:54:59.689Z,102545.00
2023-01-25T05:57:26.261Z,102556.66
2023-01-25T05:59:53.093Z,102546.06
2023-01-25T06:02:19.913Z,102540.34
2023-01-25T06:04:46.825Z,102537.59
2023-01-25T06:07:13.996Z,102541.59
2023-01-25T06:09:41.128Z,102539.81
2023-01-25T06:12:08.109Z,102541.56
2023-01-25T06:14:34.665Z,102532.31
2023-01-25T06:17:02.644Z,102529.66
2023-01-25T06:19:49.124Z,102538.56
2023-01-25T06:22:26.974Z,102535.63
2023-01-25T06:24:53.464Z,102533.25
2023-01-25T06:27:20.347Z,102538.97
2023-01-25T06:29:46.989Z,102533.97
2023-01-25T06:32:13.566Z,102531.47
2023-01-25T06:34:40.353Z,102530.38
2023-01-25T06:37:10.909Z,102529.03
2023-01-25T06:39:37.433Z,102536.94
2023-01-25T06:42:04.086Z,102536.84
2023-01-25T06:44:31.568Z,102529.91
2023-01-25T06:46:58.094Z,102532.09
2023-01-25T06:49:24.724Z,102532.94
2023-01-25T06:51:51.257Z,102534.53
2023-01-25T06:54:17.973Z,102532.00
2023-01-25T06:56:44.477Z,102530.28
2023-01-25T06:59:11.004Z,102534.94
2023-01-25T07:01:37.656Z,102544.56
2023-01-25T07:04:04.383Z,102541.84
2023-01-25T07:06:33.716Z,102538.03
2023-01-25T07:09:05.242Z,102546.91
2023-01-25T07:11:31.768Z,102548.47
2023-01-25T07:13:58.343Z,102539.34
2023-01-25T07:16:25.059Z,102539.56
2023-01-25T07:18:51.578Z,102536.75
2023-01-25T07:21:21.172Z,102533.53
2023-01-25T07:23:49.154Z,102537.84
2023-01-25T07:26:17.562Z,102530.50
2023-01-25T07:28:45.226Z,102532.19
2023-01-25T07:31:12.133Z,102520.91
2023-01-25T07:33:38.728Z,102518.00
2023-01-25T07:36:07.620Z,102521.16
2023-01-25T07:38:34.570Z,102508.72
2023-01-25T07:41:01.222Z,102518.41
2023-01-25T07:43:28.093Z,102514.69
2023-01-25T07:46:00.667Z,102518.53
2023-01-25T07:48:27.663Z,102508.03
2023-01-25T07:51:22.504Z,102509.31
2023-01-25T07:54:04.110Z,102505.31
2023-01-25T07:56:36.452Z,102507.00
2023-01-25T07:59:03.357Z,102499.19
2023-01-25T08:01:34.062Z,102503.63
2023-01-25T08:04:01.273Z,102508.41
2023-01-25T08:06:38.654Z,102507.25
2023-01-25T08:09:12.397Z,102499.44
2023-01-25T08:11:39.008Z,102490.88
2023-01-25T08:14:05.747Z,102494.56
2023-01-25T08:16:32.773Z,102500.25
2023-01-25T08:19:01.092Z,102490.34
2023-01-25T08:21:31.291Z,102492.25
2023-01-25T08:23:59.685Z,102483.72
2023-01-25T08:26:27.200Z,102469.19
2023-01-25T08:28:54.214Z,102473.06
2023-01-25T08:31:29.433Z,102473.66
2023-01-25T08:33:56.612Z,102477.31
2023-01-25T08:36:27.923Z,102475.28
2023-01-25T08:38:59.784Z,102462.16
2023-01-25T08:41:28.713Z,102470.28
2023-01-25T08:43:56.162Z,102473.44
2023-01-25T08:46:24.602Z,102469.22
2023-01-25T08:48:55.742Z,102470.16
2023-01-25T08:51:24.066Z,102458.56
2023-01-25T08:53:50.565Z,102459.44
2023-01-25T08:56:18.086Z,102449.53
2023-01-25T08:58:47.285Z,102447.13
2023-01-25T09:01:16.757Z,102450.31
2023-01-25T09:03:46.419Z,102448.25
2023-01-25T09:06:14.031Z,102448.75
2023-01-25T09:08:40.851Z,102437.47
2023-01-25T09:11:14.621Z,102442.53
2023-01-25T09:13:43.559Z,102432.84
2023-01-25T09:16:15.725Z,102422.66
2023-01-25T09:18:44.405Z,102425.75
2023-01-25T09:21:13.238Z,102422.88
2023-01-25T09:23:50.547Z,102418.19
2023-01-25T09:26:19.187Z,102410.84
2023-01-25T09:28:51.840Z,102410.38
2023-01-25T09:31:22.848Z,102409.19
2023-01-25T09:33:59.323Z,102404.69
2023-01-25T09:36:26.012Z,102401.13
2023-01-25T09:38:53.132Z,102404.66
2023-01-25T09:41:19.575Z,102402.66
2023-01-25T09:44:14.606Z,102407.41
2023-01-25T09:46:49.285Z,102405.00
2023-01-25T09:49:34.329Z,102402.16
2023-01-25T09:52:28.266Z,102402.28
2023-01-25T09:54:54.886Z,102392.47
2023-01-25T09:57:30.065Z,102380.44
2023-01-25T09:59:56.652Z,102386.66
2023-01-25T10:02:47.590Z,102383.09
2023-01-25T10:05:18.573Z,102374.63
2023-01-25T10:08:00.481Z,102379.56
2023-01-25T10:10:35.833Z,102378.31
2023-01-25T10:13:05.808Z,102377.09
2023-01-25T10:15:43.800Z,102374.31
2023-01-25T10:18:26.297Z,102377.25
2023-01-25T10:21:01.802Z,102374.34
2023-01-25T10:23:42.442Z,102368.44
2023-01-25T10:26:34.264Z,102367.91
2023-01-25T10:29:17.253Z,102362.94
2023-01-25T10:31:50.362Z,102359.16
2023-01-25T10:34:20.797Z,102358.09
2023-01-25T10:36:52.675Z,102354.44
2023-01-25T10:39:19.582Z,102352.84
2023-01-25T10:41:55.858Z,102345.41
2023-01-25T10:44:25.480Z,102342.06
2023-01-25T10:46:57.685Z,102334.13
2023-01-25T10:49:39.491Z,102332.38
2023-01-25T10:52:15.909Z,102335.34
2023-01-25T10:54:42.851Z,102328.56
2023-01-25T10:57:17.115Z,102322.94
2023-01-25T10:59:47.965Z,102320.59
2023-01-25T11:02:39.338Z,102306.72
2023-01-25T11:05:28.538Z,102299.72
2023-01-25T11:07:55.692Z,102296.25
2023-01-25T11:10:32.545Z,102290.16
2023-01-25T11:13:19.240Z,102277.59
2023-01-25T11:15:49.389Z,102274.91
2023-01-25T11:18:21.762Z,102272.03
2023-01-25T11:21:04.154Z,102271.00
2023-01-25T11:23:32.207Z,102267.25
2023-01-25T11:26:14.422Z,102267.06
2023-01-25T11:28:41.873Z,102260.44
2023-01-25T11:31:12.692Z,102257.28
2023-01-25T11:33:41.051Z,102250.03
2023-01-25T11:36:16.207Z,102244.41
2023-01-25T11:39:14.536Z,102242.81
2023-01-25T11:41:46.798Z,102228.03
2023-01-25T11:44:21.757Z,102215.00
2023-01-25T11:46:59.704Z,102221.53
2023-01-25T11:49:43.539Z,102208.78
2023-01-25T11:52:31.692Z,102214.06
2023-01-25T11:55:42.232Z,102196.38
2023-01-25T11:58:23.103Z,102190.66
2023-01-25T12:01:04.924Z,102185.16
2023-01-25T12:03:51.522Z,102181.22
2023-01-25T12:06:36.683Z,102168.94
2023-01-25T12:09:12.111Z,102155.91
2023-01-25T12:12:06.743Z,102152.63
2023-01-25T12:15:02.711Z,102143.84
2023-01-25T12:17:46.050Z,102145.84
2023-01-25T12:20:31.612Z,102143.44
2023-01-25T12:23:25.749Z,102132.38
2023-01-25T12:26:09.836Z,102133.25
2023-01-25T12:28:45.005Z,102121.47
2023-01-25T12:31:24.144Z,102106.28
2023-01-25T12:33:58.656Z,102114.56
2023-01-25T12:36:32.092Z,102106.44
2023-01-25T12:39:13.627Z,102107.25
2023-01-25T12:41:50.247Z,102090.75
2023-01-25T12:44:22.985Z,102078.31
2023-01-25T12:47:02.274Z,102071.31
2023-01-25T12:49:39.787Z,102066.56
2023-01-25T12:52:20.880Z,102071.53
2023-01-25T12:54:48.359Z,102062.56
2023-01-25T12:57:25.397Z,102044.47
2023-01-25T13:00:04.313Z,102041.72
2023-01-25T13:02:49.230Z,102030.53
2023-01-25T13:05:29.291Z,102030.38
2023-01-25T13:08:33.336Z,102029.88
2023-01-25T13:11:35.156Z,102026.53
2023-01-25T13:14:41.168Z,102015.41
2023-01-25T13:17:34.260Z,102002.03
2023-01-25T13:20:23.279Z,102006.91
2023-01-25T13:22:51.859Z,102005.63
2023-01-25T13:25:23.227Z,102001.53
2023-01-25T13:27:49.788Z,101999.34
2023-01-25T13:30:16.274Z,102007.38
2023-01-25T13:32:51.668Z,102007.78
2023-01-25T13:35:28.556Z,102002.19
2023-01-25T13:38:24.679Z,101993.47
2023-01-25T13:41:10.587Z,101993.28
2023-01-25T13:43:39.665Z,101998.25
2023-01-25T13:46:10.059Z,101998.50
2023-01-25T13:48:46.541Z,101987.81
2023-01-25T13:51:16.725Z,101982.53
2023-01-25T13:53:55.100Z,101977.13
2023-01-25T13:56:31.435Z,101977.47
2023-01-25T13:58:58.169Z,101979.31
2023-01-25T14:01:25.298Z,101974.63
2023-01-25T14:03:59.458Z,101969.72
2023-01-25T14:06:40.289Z,101970.66
2023-01-25T14:09:17.476Z,101971.72
2023-01-25T14:11:51.278Z,101975.50
2023-01-25T14:14:26.963Z,101974.13
2023-01-25T14:17:09.681Z,101978.94
2023-01-25T14:19:41.005Z,101991.56
2023-01-25T14:22:13.640Z,101984.06
2023-01-25T14:24:40.472Z,101982.66
2023-01-25T14:27:11.861Z,101979.13
2023-01-25T14:32:06.041Z,101975.78
2023-01-25T14:34:32.589Z,101967.59
2023-01-25T14:37:20.819Z,101975.75
2023-01-25T14:39:49.679Z,101961.88
2023-01-25T14:42:17.330Z,101967.72
2023-01-25T14:44:45.055Z,101964.22
2023-01-25T14:47:23.077Z,101961.66
2023-01-25T14:49:49.819Z,101955.63
2023-01-25T14:52:20.502Z,101959.78
2023-01-25T14:54:57.353Z,101943.56
2023-01-25T14:57:32.654Z,101943.38
2023-01-25T15:00:01.246Z,101936.06
2023-01-25T15:02:40.869Z,101938.56
2023-01-25T15:05:36.420Z,101941.25
2023-01-25T15:08:08.748Z,101944.28
2023-01-25T15:10:37.118Z,101937.91
2023-01-25T15:13:14.520Z,101930.41
2023-01-25T15:15:58.245Z,101921.88
2023-01-25T15:18:44.976Z,101921.78
2023-01-25T15:21:20.216Z,101926.84
2023-01-25T15:23:49.282Z,101929.34
2023-01-25T15:26:20.406Z,101932.91
2023-01-25T15:28:48.198Z,101925.13
2023-01-25T15:31:18.367Z,101908.84
2023-01-25T15:33:45.301Z,101907.13
2023-01-25T15:36:14.470Z,101897.94
2023-01-25T15:38:41.728Z,101905.66
2023-01-25T15:41:08.399Z,101899.06
2023-01-25T15:43:35.032Z,101902.88
2023-01-25T15:46:02.250Z,101900.16
2023-01-25T15:48:41.894Z,101892.19
2023-01-25T15:51:08.442Z,101891.97
2023-01-25T15:53:35.290Z,101890.59
2023-01-25T15:56:12.006Z,101893.44
2023-01-25T15:58:41.159Z,101892.53
2023-01-25T16:01:08.514Z,101891.41
2023-01-25T16:03:35.283Z,101886.09
2023-01-25T16:06:05.442Z,101873.50
2023-01-25T16:08:32.160Z,101877.47
2023-01-25T16:10:59.323Z,101877.06
2023-01-25T16:13:25.890Z,101866.72
2023-01-25T16:15:54.826Z,101872.50
2023-01-25T16:18:21.392Z,101864.03
2023-01-25T16:20:47.902Z,101866.81
2023-01-25T16:23:14.425Z,101865.69
2023-01-25T16:25:42.524Z,101867.69
2023-01-25T16:28:14.273Z,101864.81
2023-01-25T16:30:41.181Z,101859.00
2023-01-25T16:33:07.722Z,101868.66
2023-01-25T16:35:34.260Z,101859.38
2023-01-25T16:38:00.895Z,101858.22
2023-01-25T16:40:32.383Z,101859.06
2023-01-25T16:42:59.065Z,101859.38
2023-01-25T16:45:25.901Z,101855.59
2023-01-25T16:47:53.264Z,101850.50
2023-01-25T16:50:22.151Z,101848.94
2023-01-25T16:52:51.312Z,101846.44
2023-01-25T16:55:19.257Z,101836.03
2023-01-25T16:57:49.984Z,101839.72
2023-01-25T17:00:17.417Z,101839.31
2023-01-25T17:02:58.191Z,101843.72
2023-01-25T17:05:28.991Z,101846.81
2023-01-25T17:07:56.129Z,101836.66
2023-01-25T17:10:23.305Z,101833.91
2023-01-25T17:12:50.616Z,101831.50
2023-01-25T17:15:20.084Z,101820.41
2023-01-25T17:17:46.786Z,101835.06
2023-01-25T17:20:13.307Z,101836.13
2023-01-25T17:22:40.844Z,101841.09
2023-01-25T17:25:07.567Z,101843.53
2023-01-25T17:27:34.054Z,101841.69
2023-01-25T17:30:01.157Z,101834.63
2023-01-25T17:32:28.730Z,101825.00
2023-01-25T17:34:58.863Z,101828.84
2023-01-25T17:37:26.005Z,101832.84
2023-01-25T17:39:53.471Z,101835.59
2023-01-25T17:42:21.174Z,101842.25
2023-01-25T17:44:47.666Z,101831.44
2023-01-25T17:47:14.610Z,101831.19
2023-01-25T17:49:41.093Z,101833.66
2023-01-25T17:52:07.609Z,101829.22
2023-01-25T17:54:36.214Z,101824.09
2023-01-25T17:57:02.761Z,101817.00
2023-01-25T17:59:29.328Z,101815.28
2023-01-25T18:01:56.146Z,101812.16
2023-01-25T18:04:22.855Z,101802.09
2023-01-25T18:06:52.525Z,101802.28
2023-01-25T18:09:19.054Z,101796.22
2023-01-25T18:11:45.992Z,101793.50
2023-01-25T18:14:16.797Z,101793.13
2023-01-25T18:16:44.418Z,101789.81
2023-01-25T18:19:11.891Z,101784.56
2023-01-25T18:21:40.595Z,101784.19
2023-01-25T18:24:26.430Z,101769.00
2023-01-25T18:27:00.102Z,101774.41
2023-01-25T18:29:41.501Z,101763.13
2023-01-25T18:32:08.305Z,101756.47
2023-01-25T18:34:34.967Z,101751.19
2023-01-25T18:37:01.502Z,101753.69
2023-01-25T18:39:29.270Z,101752.19
2023-01-25T18:41:55.772Z,101747.84
2023-01-25T18:44:22.361Z,101748.50
2023-01-25T18:46:49.056Z,101751.31
2023-01-25T18:49:15.672Z,101740.56
2023-01-25T18:52:01.942Z,101742.50
2023-01-25T18:54:31.089Z,101725.41
2023-01-25T18:56:57.616Z,101735.19
2023-01-25T18:59:24.117Z,101739.22
2023-01-25T19:01:51.098Z,101734.25
2023-01-25T19:04:17.990Z,101739.13
2023-01-25T19:06:44.746Z,101731.69
2023-01-25T19:09:11.241Z,101723.97
2023-01-25T19:11:37.741Z,101727.78
2023-01-25T19:14:04.278Z,101722.53
2023-01-25T19:16:31.016Z,101719.25
2023-01-25T19:18:58.106Z,101716.69
2023-01-25T19:21:26.801Z,101714.50
2023-01-25T19:23:54.944Z,101711.81
2023-01-25T19:26:25.415Z,101714.97
2023-01-25T19:28:53.151Z,101703.75
2023-01-25T19:31:22.570Z,101699.91
2023-01-25T19:33:55.077Z,101697.53
2023-01-25T19:36:22.249Z,101697.00
2023-01-25T19:38:49.468Z,101698.78
2023-01-25T19:41:19.154Z,101706.28
2023-01-25T19:43:46.511Z,101702.50
2023-01-25T19:46:21.392Z,101697.38
2023-01-25T19:48:50.221Z,101683.75
2023-01-25T19:51:25.251Z,101685.03
2023-01-25T19:53:59.151Z,101688.16
2023-01-25T19:56:28.011Z,101691.66
2023-01-25T19:58:54.698Z,101690.81
2023-01-25T20:01:23.358Z,101686.66
2023-01-25T20:03:51.074Z,101678.88
2023-01-25T20:06:19.461Z,101674.16
2023-01-25T20:08:47.866Z,101678.59
2023-01-25T20:11:26.725Z,101678.66
2023-01-25T20:13:56.443Z,101679.19
2023-01-25T20:16:23.955Z,101675.72
2023-01-25T20:18:51.142Z,101667.13
2023-01-25T20:21:20.843Z,101667.66
2023-01-25T20:23:57.953Z,101665.19
2023-01-25T20:26:27.754Z,101666.56
2023-01-25T20:28:56.121Z,101661.75
2023-01-25T20:31:34.880Z,101668.75
2023-01-25T20:34:04.359Z,101653.69
2023-01-25T20:36:33.550Z,101643.06
2023-01-25T20:39:00.312Z,101641.28
2023-01-25T20:41:26.881Z,101646.56
2023-01-25T20:44:00.622Z,101653.09
2023-01-25T20:46:29.438Z,101659.44
2023-01-25T20:48:56.046Z,101649.34
2023-01-25T20:51:23.891Z,101637.66
2023-01-25T20:53:50.935Z,101626.53
2023-01-25T20:56:19.072Z,101626.31
2023-01-25T20:58:50.392Z,101629.59
2023-01-25T21:01:18.497Z,101628.91
2023-01-25T21:03:45.012Z,101636.09
2023-01-25T21:06:12.304Z,101637.47
2023-01-25T21:08:38.838Z,101636.22
2023-01-25T21:11:05.724Z,101638.19
2023-01-25T21:13:32.395Z,101631.88
2023-01-25T21:16:02.496Z,101630.91
2023-01-25T21:18:31.781Z,101631.91
2023-01-25T21:21:10.593Z,101629.22
2023-01-25T21:23:42.198Z,101630.84
2023-01-25T21:26:13.564Z,101629.06
2023-01-25T21:28:40.125Z,101626.44
2023-01-25T21:31:15.374Z,101629.81
2023-01-25T21:33:42.354Z,101638.94
2023-01-25T21:36:11.520Z,101630.94
2023-01-25T21:38:39.473Z,101620.00
2023-01-25T21:41:08.281Z,101617.81
2023-01-25T21:43:55.625Z,101619.03
2023-01-25T21:46:27.186Z,101616.13
2023-01-25T21:49:14.186Z,101617.59
2023-01-25T21:51:49.508Z,101618.78
2023-01-25T21:54:17.772Z,101614.69
2023-01-25T21:56:46.126Z,101609.78
2023-01-25T21:59:13.246Z,101602.00
2023-01-25T22:01:39.759Z,101603.72
2023-01-25T22:04:06.557Z,101607.13
2023-01-25T22:06:33.221Z,101601.84
2023-01-25T22:08:59.750Z,101596.84
2023-01-25T22:11:26.304Z,101601.72
2023-01-25T22:13:53.998Z,101595.69
2023-01-25T22:16:21.405Z,101591.41
2023-01-25T22:18:48.927Z,101591.00
2023-01-25T22:21:18.487Z,101591.28
2023-01-25T22:23:45.627Z,101592.25
2023-01-25T22:26:15.346Z,101580.47
2023-01-25T22:28:47.748Z,101576.44
2023-01-25T22:31:16.360Z,101577.31
2023-01-25T22:33:43.716Z,101568.72
2023-01-25T22:36:15.301Z,101573.66
2023-01-25T22:38:42.144Z,101580.03
2023-01-25T22:41:14.440Z,101570.00
2023-01-25T22:43:41.373Z,101545.69
2023-01-25T22:46:11.297Z,101535.06
2023-01-25T22:48:38.043Z,101528.03
2023-01-25T22:51:07.447Z,101533.38
2023-01-25T22:53:34.607Z,101526.88
2023-01-25T22:56:10.544Z,101519.88
2023-01-25T22:58:38.776Z,101518.09
2023-01-25T23:01:10.209Z,101518.81
2023-01-25T23:03:37.698Z,101535.34
2023-01-25T23:06:13.308Z,101538.31
2023-01-25T23:08:40.690Z,101525.56
2023-01-25T23:11:13.451Z,101519.88
2023-01-25T23:13:40.779Z,101529.56
2023-01-25T23:16:09.683Z,101523.31
2023-01-25T23:18:52.037Z,101528.06
2023-01-25T23:21:21.272Z,101516.69
2023-01-25T23:23:48.623Z,101522.34
2023-01-25T23:26:15.759Z,101510.31
2023-01-25T23:28:43.211Z,101503.94
2023-01-25T23:31:18.387Z,101504.06
2023-01-25T23:33:47.144Z,101503.78
2023-01-25T23:36:19.429Z,101507.91
2023-01-25T23:38:46.510Z,101493.69
2023-01-25T23:41:14.541Z,101491.53
2023-01-25T23:43:41.823Z,101486.38
2023-01-25T23:46:08.760Z,101486.25
2023-01-25T23:48:35.454Z,101488.50
2023-01-25T23:51:02.555Z,101487.47
2023-01-25T23:53:31.461Z,101483.81
2023-01-25T23:55:59.257Z,101477.38
2023-01-25T23:58:26.104Z,101475.75
